sensor_id;sensor_type;location;lat;lon;timestamp;temperature;humidity
47604;DHT22;33326;51.116;6.900;2022-08-25T00:04:21;26.90;60.00
47604;DHT22;33326;51.116;6.900;2022-08-25T00:09:25;26.70;60.20
47604;DHT22;33326;51.116;6.900;2022-08-25T00:14:29;26.50;60.50
47604;DHT22;33326;51.116;6.900;2022-08-25T00:19:36;26.40;60.60
47604;DHT22;33326;51.116;6.900;2022-08-25T00:24:38;26.40;60.70
47604;DHT22;33326;51.116;6.900;2022-08-25T00:29:40;26.40;60.90
47604;DHT22;33326;51.116;6.900;2022-08-25T00:34:44;26.30;61.50
47604;DHT22;33326;51.116;6.900;2022-08-25T00:39:45;26.20;61.30
47604;DHT22;33326;51.116;6.900;2022-08-25T00:44:47;26.00;61.70
47604;DHT22;33326;51.116;6.900;2022-08-25T00:49:53;26.00;61.80
47604;DHT22;33326;51.116;6.900;2022-08-25T00:54:59;25.90;62.00
47604;DHT22;33326;51.116;6.900;2022-08-25T01:00:05;25.80;62.30
47604;DHT22;33326;51.116;6.900;2022-08-25T01:05:10;25.70;62.00
47604;DHT22;33326;51.116;6.900;2022-08-25T01:10:12;25.60;62.70
47604;DHT22;33326;51.116;6.900;2022-08-25T01:15:14;25.70;62.90
47604;DHT22;33326;51.116;6.900;2022-08-25T01:20:20;25.70;62.90
47604;DHT22;33326;51.116;6.900;2022-08-25T01:25:32;25.50;63.70
47604;DHT22;33326;51.116;6.900;2022-08-25T01:30:37;25.30;64.80
47604;DHT22;33326;51.116;6.900;2022-08-25T01:35:40;25.10;64.50
47604;DHT22;33326;51.116;6.900;2022-08-25T01:40:43;25.00;64.90
47604;DHT22;33326;51.116;6.900;2022-08-25T01:45:46;24.90;65.20
47604;DHT22;33326;51.116;6.900;2022-08-25T01:50:48;24.90;65.40
47604;DHT22;33326;51.116;6.900;2022-08-25T01:55:52;24.80;65.50
47604;DHT22;33326;51.116;6.900;2022-08-25T02:01:03;24.70;65.70
47604;DHT22;33326;51.116;6.900;2022-08-25T02:06:06;24.60;66.20
47604;DHT22;33326;51.116;6.900;2022-08-25T02:11:11;24.50;66.30
47604;DHT22;33326;51.116;6.900;2022-08-25T02:16:17;24.40;66.70
47604;DHT22;33326;51.116;6.900;2022-08-25T02:21:20;24.50;66.60
47604;DHT22;33326;51.116;6.900;2022-08-25T02:26:24;24.40;67.40
47604;DHT22;33326;51.116;6.900;2022-08-25T02:31:26;24.30;67.30
47604;DHT22;33326;51.116;6.900;2022-08-25T02:36:28;24.20;67.50
47604;DHT22;33326;51.116;6.900;2022-08-25T02:41:33;24.10;67.60
47604;DHT22;33326;51.116;6.900;2022-08-25T02:46:36;24.00;68.20
47604;DHT22;33326;51.116;6.900;2022-08-25T02:51:38;23.90;68.70
47604;DHT22;33326;51.116;6.900;2022-08-25T02:56:41;24.10;68.60
47604;DHT22;33326;51.116;6.900;2022-08-25T03:01:43;24.10;68.90
47604;DHT22;33326;51.116;6.900;2022-08-25T03:06:46;23.90;69.30
47604;DHT22;33326;51.116;6.900;2022-08-25T03:11:49;23.80;69.70
47604;DHT22;33326;51.116;6.900;2022-08-25T03:16:51;23.70;70.60
47604;DHT22;33326;51.116;6.900;2022-08-25T03:21:52;23.60;71.60
47604;DHT22;33326;51.116;6.900;2022-08-25T03:26:57;23.50;72.30
47604;DHT22;33326;51.116;6.900;2022-08-25T03:32:00;23.50;73.10
47604;DHT22;33326;51.116;6.900;2022-08-25T03:37:02;23.40;73.40
47604;DHT22;33326;51.116;6.900;2022-08-25T03:42:06;23.40;73.00
47604;DHT22;33326;51.116;6.900;2022-08-25T03:47:08;23.30;72.90
47604;DHT22;33326;51.116;6.900;2022-08-25T03:52:10;23.30;73.00
47604;DHT22;33326;51.116;6.900;2022-08-25T03:57:14;23.20;73.30
47604;DHT22;33326;51.116;6.900;2022-08-25T04:02:16;23.10;73.70
47604;DHT22;33326;51.116;6.900;2022-08-25T04:07:17;23.10;73.90
47604;DHT22;33326;51.116;6.900;2022-08-25T04:12:21;23.10;74.20
47604;DHT22;33326;51.116;6.900;2022-08-25T04:17:24;23.00;74.90
47604;DHT22;33326;51.116;6.900;2022-08-25T04:22:25;23.00;75.30
47604;DHT22;33326;51.116;6.900;2022-08-25T04:27:29;23.00;75.90
47604;DHT22;33326;51.116;6.900;2022-08-25T04:32:31;23.10;75.80
47604;DHT22;33326;51.116;6.900;2022-08-25T04:37:33;22.90;76.80
47604;DHT22;33326;51.116;6.900;2022-08-25T04:42:36;22.80;77.60
47604;DHT22;33326;51.116;6.900;2022-08-25T04:47:39;22.70;78.50
47604;DHT22;33326;51.116;6.900;2022-08-25T04:52:41;22.60;79.30
47604;DHT22;33326;51.116;6.900;2022-08-25T04:57:44;22.60;80.00
47604;DHT22;33326;51.116;6.900;2022-08-25T05:02:46;22.60;80.90
47604;DHT22;33326;51.116;6.900;2022-08-25T05:07:48;22.60;81.50
47604;DHT22;33326;51.116;6.900;2022-08-25T05:12:51;22.60;82.00
47604;DHT22;33326;51.116;6.900;2022-08-25T05:17:53;22.70;83.10
47604;DHT22;33326;51.116;6.900;2022-08-25T05:22:55;22.70;84.70
47604;DHT22;33326;51.116;6.900;2022-08-25T05:27:59;22.70;85.30
47604;DHT22;33326;51.116;6.900;2022-08-25T05:33:00;22.70;87.00
47604;DHT22;33326;51.116;6.900;2022-08-25T05:38:05;22.70;87.60
47604;DHT22;33326;51.116;6.900;2022-08-25T05:43:08;22.80;88.60
47604;DHT22;33326;51.116;6.900;2022-08-25T05:48:11;22.80;89.30
47604;DHT22;33326;51.116;6.900;2022-08-25T05:53:13;23.00;89.50
47604;DHT22;33326;51.116;6.900;2022-08-25T05:58:16;23.00;89.70
47604;DHT22;33326;51.116;6.900;2022-08-25T06:03:18;23.10;89.80
47604;DHT22;33326;51.116;6.900;2022-08-25T06:08:20;23.30;89.90
47604;DHT22;33326;51.116;6.900;2022-08-25T06:13:24;23.40;89.20
47604;DHT22;33326;51.116;6.900;2022-08-25T06:18:26;23.50;89.20
47604;DHT22;33326;51.116;6.900;2022-08-25T06:23:28;23.60;88.70
47604;DHT22;33326;51.116;6.900;2022-08-25T06:28:31;23.70;89.20
47604;DHT22;33326;51.116;6.900;2022-08-25T06:33:33;23.80;88.60
47604;DHT22;33326;51.116;6.900;2022-08-25T06:38:35;23.90;88.70
47604;DHT22;33326;51.116;6.900;2022-08-25T06:43:39;24.00;88.10
47604;DHT22;33326;51.116;6.900;2022-08-25T06:48:41;24.10;87.80
47604;DHT22;33326;51.116;6.900;2022-08-25T06:53:45;24.30;87.70
47604;DHT22;33326;51.116;6.900;2022-08-25T06:58:49;24.40;86.70
47604;DHT22;33326;51.116;6.900;2022-08-25T07:03:53;24.50;86.40
47604;DHT22;33326;51.116;6.900;2022-08-25T07:08:57;24.60;86.00
47604;DHT22;33326;51.116;6.900;2022-08-25T07:14:01;24.80;85.00
47604;DHT22;33326;51.116;6.900;2022-08-25T07:19:04;25.00;84.30
47604;DHT22;33326;51.116;6.900;2022-08-25T07:24:08;25.20;84.10
47604;DHT22;33326;51.116;6.900;2022-08-25T07:29:14;25.50;83.50
47604;DHT22;33326;51.116;6.900;2022-08-25T07:34:16;25.80;82.20
47604;DHT22;33326;51.116;6.900;2022-08-25T07:39:35;26.00;81.70
47604;DHT22;33326;51.116;6.900;2022-08-25T07:44:39;26.20;81.00
47604;DHT22;33326;51.116;6.900;2022-08-25T07:49:40;26.40;80.20
47604;DHT22;33326;51.116;6.900;2022-08-25T07:54:42;26.70;80.30
47604;DHT22;33326;51.116;6.900;2022-08-25T07:59:45;26.90;79.20
47604;DHT22;33326;51.116;6.900;2022-08-25T08:04:49;27.10;78.20
47604;DHT22;33326;51.116;6.900;2022-08-25T08:09:51;27.30;78.40
47604;DHT22;33326;51.116;6.900;2022-08-25T08:14:56;27.50;76.90
47604;DHT22;33326;51.116;6.900;2022-08-25T08:19:59;27.70;76.40
47604;DHT22;33326;51.116;6.900;2022-08-25T08:25:02;28.00;76.10
47604;DHT22;33326;51.116;6.900;2022-08-25T08:30:06;28.20;75.60
47604;DHT22;33326;51.116;6.900;2022-08-25T08:35:09;28.50;75.60
47604;DHT22;33326;51.116;6.900;2022-08-25T08:40:12;28.70;74.80
47604;DHT22;33326;51.116;6.900;2022-08-25T08:45:33;29.00;74.40
47604;DHT22;33326;51.116;6.900;2022-08-25T08:50:40;29.30;73.60
47604;DHT22;33326;51.116;6.900;2022-08-25T08:55:48;29.40;72.90
47604;DHT22;33326;51.116;6.900;2022-08-25T09:00:54;29.60;72.60
47604;DHT22;33326;51.116;6.900;2022-08-25T09:06:02;29.90;72.40
47604;DHT22;33326;51.116;6.900;2022-08-25T09:11:11;30.00;71.10
47604;DHT22;33326;51.116;6.900;2022-08-25T09:16:20;30.20;72.20
47604;DHT22;33326;51.116;6.900;2022-08-25T09:21:45;30.60;70.80
47604;DHT22;33326;51.116;6.900;2022-08-25T09:26:59;30.70;69.80
47604;DHT22;33326;51.116;6.900;2022-08-25T09:32:07;30.90;70.00
47604;DHT22;33326;51.116;6.900;2022-08-25T09:37:10;31.30;69.60
47604;DHT22;33326;51.116;6.900;2022-08-25T09:42:12;31.40;68.40
47604;DHT22;33326;51.116;6.900;2022-08-25T09:47:22;31.70;68.20
47604;DHT22;33326;51.116;6.900;2022-08-25T09:52:33;31.70;67.50
47604;DHT22;33326;51.116;6.900;2022-08-25T09:57:43;32.10;67.50
47604;DHT22;33326;51.116;6.900;2022-08-25T10:03:06;32.40;66.90
47604;DHT22;33326;51.116;6.900;2022-08-25T10:08:11;32.70;65.70
47604;DHT22;33326;51.116;6.900;2022-08-25T10:13:17;33.00;66.40
47604;DHT22;33326;51.116;6.900;2022-08-25T10:18:23;33.20;65.90
47604;DHT22;33326;51.116;6.900;2022-08-25T10:23:26;33.60;65.40
47604;DHT22;33326;51.116;6.900;2022-08-25T10:28:32;33.80;64.20
47604;DHT22;33326;51.116;6.900;2022-08-25T10:33:47;34.20;63.10
47604;DHT22;33326;51.116;6.900;2022-08-25T10:38:55;34.70;63.60
47604;DHT22;33326;51.116;6.900;2022-08-25T10:44:06;35.00;61.90
47604;DHT22;33326;51.116;6.900;2022-08-25T10:49:38;35.20;60.00
47604;DHT22;33326;51.116;6.900;2022-08-25T10:54:48;35.40;60.60
47604;DHT22;33326;51.116;6.900;2022-08-25T10:59:59;34.90;59.60
47604;DHT22;33326;51.116;6.900;2022-08-25T11:05:12;35.20;60.80
47604;DHT22;33326;51.116;6.900;2022-08-25T11:10:19;35.40;59.70
47604;DHT22;33326;51.116;6.900;2022-08-25T11:15:26;35.00;59.90
47604;DHT22;33326;51.116;6.900;2022-08-25T11:20:35;34.80;60.00
47604;DHT22;33326;51.116;6.900;2022-08-25T11:25:41;35.70;60.50
47604;DHT22;33326;51.116;6.900;2022-08-25T11:30:44;36.70;58.70
47604;DHT22;33326;51.116;6.900;2022-08-25T11:35:49;36.60;58.30
47604;DHT22;33326;51.116;6.900;2022-08-25T11:41:04;36.80;57.20
47604;DHT22;33326;51.116;6.900;2022-08-25T11:46:22;36.90;57.30
47604;DHT22;33326;51.116;6.900;2022-08-25T11:51:30;37.50;55.80
47604;DHT22;33326;51.116;6.900;2022-08-25T11:56:35;37.80;56.60
47604;DHT22;33326;51.116;6.900;2022-08-25T12:02:17;38.20;55.60
47604;DHT22;33326;51.116;6.900;2022-08-25T12:07:57;38.40;53.70
47604;DHT22;33326;51.116;6.900;2022-08-25T12:19:27;39.40;54.00
47604;DHT22;33326;51.116;6.900;2022-08-25T12:24:48;39.80;53.50
47604;DHT22;33326;51.116;6.900;2022-08-25T12:29:56;39.90;53.30
47604;DHT22;33326;51.116;6.900;2022-08-25T12:35:09;40.30;53.10
47604;DHT22;33326;51.116;6.900;2022-08-25T12:40:22;40.50;52.30
47604;DHT22;33326;51.116;6.900;2022-08-25T12:45:38;41.00;52.60
47604;DHT22;33326;51.116;6.900;2022-08-25T12:50:42;41.90;51.30
47604;DHT22;33326;51.116;6.900;2022-08-25T12:55:51;42.30;51.60
47604;DHT22;33326;51.116;6.900;2022-08-25T13:01:09;42.50;49.50
47604;DHT22;33326;51.116;6.900;2022-08-25T13:06:33;42.90;49.60
47604;DHT22;33326;51.116;6.900;2022-08-25T13:11:40;43.70;48.40
47604;DHT22;33326;51.116;6.900;2022-08-25T13:16:53;43.40;47.80
47604;DHT22;33326;51.116;6.900;2022-08-25T13:21:56;43.00;49.30
47604;DHT22;33326;51.116;6.900;2022-08-25T13:27:03;44.20;48.30
47604;DHT22;33326;51.116;6.900;2022-08-25T13:32:24;44.90;47.90
47604;DHT22;33326;51.116;6.900;2022-08-25T13:37:26;45.90;48.00
47604;DHT22;33326;51.116;6.900;2022-08-25T13:42:30;46.60;46.20
47604;DHT22;33326;51.116;6.900;2022-08-25T13:47:34;46.60;46.40
47604;DHT22;33326;51.116;6.900;2022-08-25T13:52:36;47.80;46.40
47604;DHT22;33326;51.116;6.900;2022-08-25T13:57:41;48.10;45.10
47604;DHT22;33326;51.116;6.900;2022-08-25T14:02:47;48.30;45.80
47604;DHT22;33326;51.116;6.900;2022-08-25T14:07:52;48.30;43.80
47604;DHT22;33326;51.116;6.900;2022-08-25T14:13:12;48.20;44.10
47604;DHT22;33326;51.116;6.900;2022-08-25T14:18:18;49.30;43.20
47604;DHT22;33326;51.116;6.900;2022-08-25T14:23:23;48.40;43.40
47604;DHT22;33326;51.116;6.900;2022-08-25T14:28:29;49.90;43.00
47604;DHT22;33326;51.116;6.900;2022-08-25T14:33:34;50.00;42.60
47604;DHT22;33326;51.116;6.900;2022-08-25T14:38:37;49.60;42.10
47604;DHT22;33326;51.116;6.900;2022-08-25T14:43:43;47.40;43.30
47604;DHT22;33326;51.116;6.900;2022-08-25T14:48:49;48.40;43.30
47604;DHT22;33326;51.116;6.900;2022-08-25T14:53:57;49.70;42.70
47604;DHT22;33326;51.116;6.900;2022-08-25T14:59:02;50.50;42.10
47604;DHT22;33326;51.116;6.900;2022-08-25T15:04:07;50.40;42.10
47604;DHT22;33326;51.116;6.900;2022-08-25T15:09:11;50.90;41.90
47604;DHT22;33326;51.116;6.900;2022-08-25T15:14:19;51.30;41.60
47604;DHT22;33326;51.116;6.900;2022-08-25T15:19:24;51.60;40.90
47604;DHT22;33326;51.116;6.900;2022-08-25T15:24:27;51.80;41.00
47604;DHT22;33326;51.116;6.900;2022-08-25T15:29:31;51.10;40.40
47604;DHT22;33326;51.116;6.900;2022-08-25T15:34:34;49.60;40.90
47604;DHT22;33326;51.116;6.900;2022-08-25T15:39:37;50.00;40.00
47604;DHT22;33326;51.116;6.900;2022-08-25T15:44:42;48.60;40.00
47604;DHT22;33326;51.116;6.900;2022-08-25T15:49:44;47.90;41.10
47604;DHT22;33326;51.116;6.900;2022-08-25T15:54:46;49.40;41.50
47604;DHT22;33326;51.116;6.900;2022-08-25T15:59:50;49.60;40.50
47604;DHT22;33326;51.116;6.900;2022-08-25T16:04:52;49.10;40.10
47604;DHT22;33326;51.116;6.900;2022-08-25T16:09:55;50.10;40.70
47604;DHT22;33326;51.116;6.900;2022-08-25T16:14:58;50.90;40.10
47604;DHT22;33326;51.116;6.900;2022-08-25T16:20:02;50.60;40.10
47604;DHT22;33326;51.116;6.900;2022-08-25T16:25:05;48.20;40.00
47604;DHT22;33326;51.116;6.900;2022-08-25T16:30:10;48.30;41.10
47604;DHT22;33326;51.116;6.900;2022-08-25T16:35:14;48.70;40.10
47604;DHT22;33326;51.116;6.900;2022-08-25T16:40:16;48.20;39.90
47604;DHT22;33326;51.116;6.900;2022-08-25T16:45:23;47.00;40.60
47604;DHT22;33326;51.116;6.900;2022-08-25T16:50:25;44.40;41.40
47604;DHT22;33326;51.116;6.900;2022-08-25T16:55:29;42.30;42.10
47604;DHT22;33326;51.116;6.900;2022-08-25T17:00:36;40.60;43.70
47604;DHT22;33326;51.116;6.900;2022-08-25T17:05:42;39.50;44.40
47604;DHT22;33326;51.116;6.900;2022-08-25T17:10:44;38.70;44.50
47604;DHT22;33326;51.116;6.900;2022-08-25T17:15:47;38.00;45.40
47604;DHT22;33326;51.116;6.900;2022-08-25T17:20:57;37.50;45.20
47604;DHT22;33326;51.116;6.900;2022-08-25T17:25:59;37.10;45.10
47604;DHT22;33326;51.116;6.900;2022-08-25T17:31:03;36.70;45.90
47604;DHT22;33326;51.116;6.900;2022-08-25T17:36:05;36.50;47.10
47604;DHT22;33326;51.116;6.900;2022-08-25T17:41:09;36.30;46.80
47604;DHT22;33326;51.116;6.900;2022-08-25T17:46:13;36.20;48.70
47604;DHT22;33326;51.116;6.900;2022-08-25T17:51:15;35.90;46.90
47604;DHT22;33326;51.116;6.900;2022-08-25T17:56:20;35.60;48.00
47604;DHT22;33326;51.116;6.900;2022-08-25T18:01:26;35.40;49.40
47604;DHT22;33326;51.116;6.900;2022-08-25T18:06:28;35.20;49.50
47604;DHT22;33326;51.116;6.900;2022-08-25T18:11:31;34.90;49.90
47604;DHT22;33326;51.116;6.900;2022-08-25T18:16:34;34.70;50.60
47604;DHT22;33326;51.116;6.900;2022-08-25T18:21:37;34.50;51.00
47604;DHT22;33326;51.116;6.900;2022-08-25T18:26:39;34.20;50.50
47604;DHT22;33326;51.116;6.900;2022-08-25T18:31:43;33.70;51.60
47604;DHT22;33326;51.116;6.900;2022-08-25T18:36:45;33.30;52.30
47604;DHT22;33326;51.116;6.900;2022-08-25T18:41:47;33.00;52.60
47604;DHT22;33326;51.116;6.900;2022-08-25T18:46:51;32.90;53.20
47604;DHT22;33326;51.116;6.900;2022-08-25T18:51:52;33.00;53.10
47604;DHT22;33326;51.116;6.900;2022-08-25T18:56:54;33.00;53.50
47604;DHT22;33326;51.116;6.900;2022-08-25T19:01:58;32.80;53.50
47604;DHT22;33326;51.116;6.900;2022-08-25T19:07:00;32.40;53.80
47604;DHT22;33326;51.116;6.900;2022-08-25T19:12:03;32.10;54.50
47604;DHT22;33326;51.116;6.900;2022-08-25T19:17:07;31.70;54.90
47604;DHT22;33326;51.116;6.900;2022-08-25T19:22:09;31.70;55.20
47604;DHT22;33326;51.116;6.900;2022-08-25T19:27:12;31.70;55.10
47604;DHT22;33326;51.116;6.900;2022-08-25T19:32:15;31.30;55.60
47604;DHT22;33326;51.116;6.900;2022-08-25T19:37:17;31.10;56.00
47604;DHT22;33326;51.116;6.900;2022-08-25T19:42:19;31.00;56.20
47604;DHT22;33326;51.116;6.900;2022-08-25T19:47:23;31.00;56.00
47604;DHT22;33326;51.116;6.900;2022-08-25T19:52:25;30.70;57.10
47604;DHT22;33326;51.116;6.900;2022-08-25T19:57:27;30.70;57.00
47604;DHT22;33326;51.116;6.900;2022-08-25T20:02:31;30.60;57.40
47604;DHT22;33326;51.116;6.900;2022-08-25T20:07:33;30.50;57.40
47604;DHT22;33326;51.116;6.900;2022-08-25T20:12:35;30.30;57.70
47604;DHT22;33326;51.116;6.900;2022-08-25T20:17:39;30.00;58.20
47604;DHT22;33326;51.116;6.900;2022-08-25T20:22:42;30.00;58.60
47604;DHT22;33326;51.116;6.900;2022-08-25T20:27:47;29.80;58.70
47604;DHT22;33326;51.116;6.900;2022-08-25T20:32:51;29.60;59.40
47604;DHT22;33326;51.116;6.900;2022-08-25T20:37:54;29.60;59.70
47604;DHT22;33326;51.116;6.900;2022-08-25T20:42:58;29.40;59.80
47604;DHT22;33326;51.116;6.900;2022-08-25T20:48:04;29.30;60.20
47604;DHT22;33326;51.116;6.900;2022-08-25T20:53:06;29.00;60.70
47604;DHT22;33326;51.116;6.900;2022-08-25T20:58:08;29.00;61.20
47604;DHT22;33326;51.116;6.900;2022-08-25T21:03:12;29.20;61.30
47604;DHT22;33326;51.116;6.900;2022-08-25T21:08:13;29.10;61.60
47604;DHT22;33326;51.116;6.900;2022-08-25T21:13:15;28.80;62.60
47604;DHT22;33326;51.116;6.900;2022-08-25T21:18:18;28.60;62.80
47604;DHT22;33326;51.116;6.900;2022-08-25T21:23:21;28.60;62.40
47604;DHT22;33326;51.116;6.900;2022-08-25T21:28:23;28.60;62.60
47604;DHT22;33326;51.116;6.900;2022-08-25T21:33:26;28.60;62.20
47604;DHT22;33326;51.116;6.900;2022-08-25T21:38:29;28.50;62.00
47604;DHT22;33326;51.116;6.900;2022-08-25T21:43:31;28.50;61.90
47604;DHT22;33326;51.116;6.900;2022-08-25T21:48:34;28.40;62.10
47604;DHT22;33326;51.116;6.900;2022-08-25T21:53:37;28.40;62.00
47604;DHT22;33326;51.116;6.900;2022-08-25T21:58:39;28.30;62.20
47604;DHT22;33326;51.116;6.900;2022-08-25T22:03:43;28.30;62.60
47604;DHT22;33326;51.116;6.900;2022-08-25T22:08:46;28.20;62.70
47604;DHT22;33326;51.116;6.900;2022-08-25T22:13:48;28.10;62.90
47604;DHT22;33326;51.116;6.900;2022-08-25T22:18:55;28.00;63.00
47604;DHT22;33326;51.116;6.900;2022-08-25T22:23:57;27.90;63.30
47604;DHT22;33326;51.116;6.900;2022-08-25T22:29:00;27.90;63.60
47604;DHT22;33326;51.116;6.900;2022-08-25T22:34:04;27.90;63.90
47604;DHT22;33326;51.116;6.900;2022-08-25T22:39:06;27.90;64.00
47604;DHT22;33326;51.116;6.900;2022-08-25T22:44:09;27.70;64.70
47604;DHT22;33326;51.116;6.900;2022-08-25T22:49:13;27.50;65.00
47604;DHT22;33326;51.116;6.900;2022-08-25T22:54:15;27.40;65.40
47604;DHT22;33326;51.116;6.900;2022-08-25T22:59:17;27.30;65.80
47604;DHT22;33326;51.116;6.900;2022-08-25T23:04:20;27.20;65.90
47604;DHT22;33326;51.116;6.900;2022-08-25T23:09:22;27.20;66.10
47604;DHT22;33326;51.116;6.900;2022-08-25T23:14:24;27.30;65.70
47604;DHT22;33326;51.116;6.900;2022-08-25T23:19:27;27.40;65.30
47604;DHT22;33326;51.116;6.900;2022-08-25T23:24:30;27.30;65.70
47604;DHT22;33326;51.116;6.900;2022-08-25T23:29:35;27.20;65.80
47604;DHT22;33326;51.116;6.900;2022-08-25T23:34:39;27.10;66.20
47604;DHT22;33326;51.116;6.900;2022-08-25T23:39:42;26.60;66.90
47604;DHT22;33326;51.116;6.900;2022-08-25T23:44:45;26.70;66.90
47604;DHT22;33326;51.116;6.900;2022-08-25T23:49:48;26.50;67.70
47604;DHT22;33326;51.116;6.900;2022-08-25T23:54:50;26.60;67.80
47604;DHT22;33326;51.116;6.900;2022-08-25T23:59:52;26.50;68.00
